Time;durP1;ratioP1;P1;durP2;ratioP2;P2;SDS_P1;SDS_P2;PMS_P1;PMS_P2;Temp;Humidity;BMP_temperature;BMP_pressure;BME280_temperature;BME280_humidity;BME280_pressure;Samples;Min_cycle;Max_cycle;Signal;HPM_P1;HPM_P2
2021/06/08 00:00:59;;;;;;;36.70;27.43;;;;;;;17.28;76.03;101532.06;5048974;28;20212;-66
2021/06/08 00:03:25;;;;;;;37.87;27.87;;;;;;;17.27;76.20;101533.91;5049303;28;20235;-65
2021/06/08 00:05:53;;;;;;;36.27;27.37;;;;;;;17.24;76.05;101531.44;5047911;28;20667;-65
2021/06/08 00:08:19;;;;;;;37.47;27.80;;;;;;;17.22;76.23;101533.38;5049246;28;20231;-66
2021/06/08 00:10:45;;;;;;;39.57;28.50;;;;;;;17.20;76.16;101527.25;5049071;28;20208;-65
2021/06/08 00:13:11;;;;;;;35.90;26.90;;;;;;;17.20;76.50;101534.47;5048699;28;20622;-66
2021/06/08 00:15:37;;;;;;;41.47;28.23;;;;;;;17.17;76.48;101530.22;5049219;28;20688;-66
2021/06/08 00:18:03;;;;;;;40.10;27.93;;;;;;;17.16;76.62;101530.34;5049490;28;20219;-66
2021/06/08 00:20:30;;;;;;;40.53;27.77;;;;;;;17.15;76.74;101526.78;5049689;28;20210;-66
2021/06/08 00:22:57;;;;;;;47.03;29.37;;;;;;;17.14;76.67;101518.81;5045712;28;20665;-66
2021/06/08 00:25:24;;;;;;;38.13;27.10;;;;;;;17.11;76.79;101528.00;5047105;28;20205;-66
2021/06/08 00:27:51;;;;;;;36.60;27.00;;;;;;;17.09;76.76;101518.31;5049641;28;20239;-66
2021/06/08 00:30:18;;;;;;;41.73;28.73;;;;;;;17.08;76.79;101516.59;5049229;28;20199;-66
2021/06/08 00:32:44;;;;;;;40.37;27.43;;;;;;;17.07;77.01;101526.50;5048982;28;20201;-66
2021/06/08 00:35:11;;;;;;;35.30;27.80;;;;;;;17.04;77.05;101518.66;5048109;28;20219;-66
2021/06/08 00:37:39;;;;;;;37.27;28.03;;;;;;;17.04;77.14;101525.88;5045928;28;20636;-66
2021/06/08 00:40:08;;;;;;;35.30;26.80;;;;;;;17.04;77.13;101523.19;5048795;28;20208;-66
2021/06/08 00:42:36;;;;;;;39.53;28.33;;;;;;;17.02;77.15;101521.47;5048427;28;20313;-66
2021/06/08 00:45:03;;;;;;;31.53;26.30;;;;;;;17.02;77.11;101522.47;5049394;28;20253;-65
2021/06/08 00:47:30;;;;;;;34.67;26.63;;;;;;;16.99;77.29;101519.03;5051070;28;20235;-66
2021/06/08 00:49:57;;;;;;;34.77;27.77;;;;;;;16.96;77.41;101513.88;5090010;23;20231;-66
2021/06/08 00:52:23;;;;;;;33.50;26.57;;;;;;;16.94;77.37;101513.13;5076100;28;20211;-65
2021/06/08 00:54:49;;;;;;;35.90;26.70;;;;;;;16.94;77.57;101510.44;5075696;28;20726;-66
2021/06/08 00:57:16;;;;;;;39.77;27.00;;;;;;;16.94;77.63;101506.91;5078954;28;20564;-66
2021/06/08 00:59:42;;;;;;;34.53;25.60;;;;;;;16.93;77.39;101506.03;5080555;28;20227;-66
2021/06/08 01:02:08;;;;;;;35.63;27.37;;;;;;;16.90;77.54;101511.66;5078569;28;20207;-66
2021/06/08 01:04:35;;;;;;;34.40;25.47;;;;;;;16.89;77.21;101507.25;5077892;28;20583;-66
2021/06/08 01:07:01;;;;;;;33.90;25.87;;;;;;;16.89;77.70;101506.38;5075502;28;20261;-66
2021/06/08 01:09:27;;;;;;;34.73;25.73;;;;;;;16.89;77.62;101507.25;5075889;28;20284;-66
2021/06/08 01:11:53;;;;;;;34.57;25.47;;;;;;;16.89;77.68;101498.31;5076839;28;20661;-67
2021/06/08 01:14:20;;;;;;;32.57;25.40;;;;;;;16.89;77.68;101503.69;5080489;28;20672;-66
2021/06/08 01:16:46;;;;;;;35.63;26.07;;;;;;;16.88;77.71;101501.97;5078815;28;20198;-66
2021/06/08 01:19:12;;;;;;;37.27;26.87;;;;;;;16.87;77.80;101502.94;5075985;28;20219;-66
2021/06/08 01:21:39;;;;;;;38.13;27.67;;;;;;;16.86;77.63;101494.00;5075715;28;20218;-65
2021/06/08 01:24:06;;;;;;;33.27;25.37;;;;;;;16.85;77.74;101500.38;5075497;28;20214;-67
2021/06/08 01:26:33;;;;;;;34.30;27.10;;;;;;;16.85;77.78;101494.97;5080151;28;20202;-66
2021/06/08 01:29:01;;;;;;;31.37;24.93;;;;;;;16.86;77.73;101495.84;5081293;28;20571;-66
2021/06/08 01:31:29;;;;;;;34.53;24.83;;;;;;;16.86;77.84;101496.69;5078875;28;20609;-64
2021/06/08 01:33:57;;;;;;;35.90;27.13;;;;;;;16.85;77.77;101494.97;5079491;28;20201;-66
2021/06/08 01:36:25;;;;;;;33.77;25.87;;;;;;;16.86;77.90;101485.09;5076099;28;20246;-65
2021/06/08 01:38:53;;;;;;;37.73;26.53;;;;;;;16.86;77.83;101485.09;5074778;28;20292;-66
2021/06/08 01:41:21;;;;;;;35.53;25.70;;;;;;;16.87;77.76;101494.88;5080269;28;20211;-66
2021/06/08 01:43:48;;;;;;;31.53;24.50;;;;;;;16.87;77.84;101494.88;5077542;28;20206;-66
2021/06/08 01:46:15;;;;;;;34.43;25.90;;;;;;;16.86;77.85;101494.00;5074006;28;20723;-66
2021/06/08 01:48:42;;;;;;;29.90;24.63;;;;;;;16.87;77.75;101497.56;5074204;28;20232;-65
2021/06/08 01:51:16;;;;;;;34.07;25.73;;;;;;;16.87;77.75;101492.19;5073746;28;20208;-66
2021/06/08 01:53:48;;;;;;;34.93;25.77;;;;;;;16.86;77.58;101493.16;5075011;28;20199;-66
2021/06/08 01:56:20;;;;;;;34.27;25.43;;;;;;;16.85;77.76;101499.50;5075630;28;20199;-66
2021/06/08 01:58:55;;;;;;;30.93;25.00;;;;;;;16.85;77.64;101494.13;5076407;28;20752;-63
2021/06/08 02:01:24;;;;;;;32.70;25.90;;;;;;;16.82;77.67;101489.88;5075803;28;20202;-66
2021/06/08 02:03:57;;;;;;;30.63;24.60;;;;;;;16.82;77.66;101499.78;5074373;28;20219;-67
2021/06/08 02:06:31;;;;;;;31.07;25.03;;;;;;;16.78;77.54;101488.38;5073245;28;20203;-65
2021/06/08 02:09:02;;;;;;;37.43;27.00;;;;;;;16.78;77.73;101492.91;5073641;28;20280;-66
2021/06/08 02:11:40;;;;;;;37.50;26.33;;;;;;;16.77;77.94;101488.50;5075396;28;20249;-64
2021/06/08 02:14:13;;;;;;;35.27;25.73;;;;;;;16.76;77.81;101492.16;5076753;28;20199;-65
2021/06/08 02:16:44;;;;;;;32.17;26.43;;;;;;;16.74;77.84;101491.41;5075310;28;20203;-66
2021/06/08 02:19:11;;;;;;;34.67;26.60;;;;;;;16.73;77.81;101492.38;5074030;28;20231;-66
2021/06/08 02:21:41;;;;;;;33.23;25.80;;;;;;;16.71;77.82;101497.88;5073929;28;20308;-66
2021/06/08 02:24:09;;;;;;;32.57;27.27;;;;;;;16.71;78.06;101510.47;5071752;28;20214;-66
2021/06/08 02:26:41;;;;;;;33.00;26.17;;;;;;;16.67;78.07;101504.44;5076980;28;20203;-66
2021/06/08 02:29:08;;;;;;;35.83;26.80;;;;;;;16.65;78.13;101501.91;5075634;28;20227;-66
2021/06/08 02:31:35;;;;;;;33.37;25.83;;;;;;;16.62;78.16;101502.09;5075655;28;20214;-66
2021/06/08 02:34:03;;;;;;;31.30;25.00;;;;;;;16.60;78.35;101498.66;5074992;28;20268;-65
2021/06/08 02:36:30;;;;;;;31.70;25.57;;;;;;;16.57;78.41;101496.19;5075264;28;20199;-66
2021/06/08 02:38:58;;;;;;;33.07;26.10;;;;;;;16.54;78.42;101490.19;5073615;28;20229;-66
2021/06/08 02:41:27;;;;;;;35.20;26.37;;;;;;;16.50;78.41;101497.63;5073437;28;20700;-65
2021/06/08 02:43:55;;;;;;;33.63;25.40;;;;;;;16.48;78.42;101506.78;5077710;28;20198;-66
2021/06/08 02:46:23;;;;;;;33.07;25.67;;;;;;;16.44;78.55;101502.59;5073523;28;20218;-66
2021/06/08 02:48:50;;;;;;;34.60;25.60;;;;;;;16.42;78.59;101501.88;5075496;28;20506;-66
2021/06/08 02:51:19;;;;;;;28.93;25.27;;;;;;;16.40;78.72;101499.28;5072977;28;20207;-66
2021/06/08 02:53:47;;;;;;;33.77;25.53;;;;;;;16.40;78.79;101503.81;5074503;28;20633;-64
2021/06/08 02:56:14;;;;;;;35.10;25.87;;;;;;;16.39;78.81;101499.41;5072757;28;20668;-65
2021/06/08 02:58:42;;;;;;;31.13;24.77;;;;;;;16.37;78.68;101504.88;5074008;28;20703;-66
2021/06/08 03:01:13;;;;;;;30.50;24.80;;;;;;;16.36;78.72;101505.00;5075209;28;20209;-66
2021/06/08 03:03:42;;;;;;;31.20;25.17;;;;;;;16.33;78.97;101506.06;5073572;28;20206;-66
2021/06/08 03:06:11;;;;;;;32.73;25.77;;;;;;;16.31;78.80;101502.63;5073344;28;20259;-66
2021/06/08 03:08:42;;;;;;;33.43;27.03;;;;;;;16.29;78.89;101510.00;5073138;28;20763;-66
2021/06/08 03:11:13;;;;;;;35.90;26.20;;;;;;;16.26;78.93;101508.38;5075532;28;20198;-66
2021/06/08 03:13:40;;;;;;;35.50;27.03;;;;;;;16.24;78.97;101513.00;5075368;28;20206;-66
2021/06/08 03:16:11;;;;;;;36.13;26.97;;;;;;;16.23;79.09;101507.75;5078837;28;20202;-66
2021/06/08 03:18:41;;;;;;;36.57;26.93;;;;;;;16.22;78.96;101506.03;5089537;28;20218;-66
2021/06/08 03:21:13;;;;;;;34.07;27.47;;;;;;;16.20;79.13;101508.81;5090440;28;20213;-66
2021/06/08 03:23:45;;;;;;;39.37;28.47;;;;;;;16.20;79.28;101511.50;5081513;28;20739;-66
2021/06/08 03:26:13;;;;;;;31.70;26.10;;;;;;;16.19;79.33;101515.16;5090730;28;20196;-66
2021/06/08 03:28:41;;;;;;;32.43;25.33;;;;;;;16.18;79.17;101517.97;5089937;28;20226;-66
2021/06/08 03:31:07;;;;;;;37.20;26.10;;;;;;;16.19;79.24;101522.38;5088374;28;20200;-65
2021/06/08 03:33:35;;;;;;;37.07;27.93;;;;;;;16.18;79.30;101518.81;5088805;28;20228;-66
2021/06/08 03:36:02;;;;;;;32.47;25.63;;;;;;;16.18;79.12;101520.66;5083719;28;20204;-66
2021/06/08 03:38:29;;;;;;;29.43;24.70;;;;;;;16.18;79.15;101520.66;5090081;28;20230;-66
2021/06/08 03:40:56;;;;;;;32.27;25.93;;;;;;;16.16;79.06;101528.81;5090188;28;20209;-66
2021/06/08 03:43:23;;;;;;;31.83;25.07;;;;;;;16.13;78.99;101526.34;5089570;28;20238;-66
2021/06/08 03:45:50;;;;;;;32.23;23.83;;;;;;;16.10;79.09;101533.78;5089835;28;20667;-66
2021/06/08 03:48:17;;;;;;;31.13;24.40;;;;;;;16.05;79.12;101526.06;5089155;28;20225;-66
2021/06/08 03:50:45;;;;;;;30.40;24.53;;;;;;;16.02;79.05;101528.97;5086182;28;20643;-66
2021/06/08 03:53:12;;;;;;;34.30;26.00;;;;;;;15.98;79.07;101520.25;5088849;28;20202;-67
2021/06/08 03:55:38;;;;;;;32.87;25.07;;;;;;;15.96;79.38;101524.03;5090105;28;20208;-66
2021/06/08 03:58:10;;;;;;;31.77;25.63;;;;;;;15.94;79.53;101521.44;5084221;28;20219;-66
2021/06/08 04:00:37;;;;;;;35.90;25.87;;;;;;;15.93;79.49;101522.44;5086379;28;20268;-66
2021/06/08 04:03:04;;;;;;;33.47;26.17;;;;;;;15.94;79.72;101526.00;5075708;28;20739;-66
2021/06/08 04:05:30;;;;;;;33.47;24.60;;;;;;;15.94;79.51;101521.44;5086631;28;20205;-66
2021/06/08 04:07:58;;;;;;;31.27;25.03;;;;;;;15.94;79.73;101528.69;5087847;28;20231;-66
2021/06/08 04:10:25;;;;;;;33.37;25.03;;;;;;;15.91;79.42;101527.06;5087966;28;20687;-65
2021/06/08 04:12:51;;;;;;;29.67;23.03;;;;;;;15.90;79.51;101525.34;5085372;28;20207;-66
2021/06/08 04:15:18;;;;;;;32.37;23.70;;;;;;;15.88;79.61;101527.28;5087706;28;20705;-66
2021/06/08 04:17:45;;;;;;;29.47;23.23;;;;;;;15.87;79.76;101530.06;5086931;28;20205;-67
2021/06/08 04:20:12;;;;;;;29.37;22.70;;;;;;;15.86;79.46;101521.16;5087637;28;20229;-66
2021/06/08 04:22:40;;;;;;;29.60;22.20;;;;;;;15.86;79.48;101521.16;5090541;28;20209;-66
2021/06/08 04:25:09;;;;;;;31.87;22.87;;;;;;;15.86;79.60;101521.16;5092621;28;20321;-65
2021/06/08 04:27:35;;;;;;;26.27;21.40;;;;;;;15.86;79.79;101528.34;5090953;28;20237;-66
2021/06/08 04:30:03;;;;;;;24.67;21.30;;;;;;;15.86;79.64;101518.47;5091356;28;20241;-66
2021/06/08 04:32:32;;;;;;;28.83;21.50;;;;;;;15.89;79.69;101522.75;5094019;28;20265;-66
2021/06/08 04:34:58;;;;;;;32.73;21.70;;;;;;;15.92;79.63;101525.25;5093721;28;20200;-65
2021/06/08 04:37:24;;;;;;;27.23;20.87;;;;;;;15.92;79.71;101523.41;5082878;28;20209;-65
2021/06/08 04:39:50;;;;;;;24.40;20.87;;;;;;;15.95;79.45;101520.47;5080528;28;20230;-66
2021/06/08 04:42:18;;;;;;;24.40;20.97;;;;;;;15.97;79.55;101518.53;5081870;28;20213;-66
2021/06/08 04:44:46;;;;;;;25.23;20.83;;;;;;;16.00;79.34;101527.34;5093040;28;20249;-66
2021/06/08 04:47:13;;;;;;;22.67;20.17;;;;;;;16.02;79.77;101522.72;5079811;28;20233;-65
2021/06/08 04:49:40;;;;;;;25.47;21.43;;;;;;;16.05;79.62;101520.69;5084832;28;20615;-66
2021/06/08 04:52:07;;;;;;;25.27;20.67;;;;;;;16.10;79.65;101521.22;5089016;28;20208;-65
2021/06/08 04:54:34;;;;;;;25.20;22.03;;;;;;;16.12;79.45;101521.94;5077429;28;20736;-65
2021/06/08 04:57:01;;;;;;;29.80;21.63;;;;;;;16.14;79.38;101525.38;5076956;28;20204;-64
2021/06/08 04:59:34;;;;;;;26.37;22.07;;;;;;;16.15;79.24;101527.09;5079749;28;20221;-64
2021/06/08 05:02:03;;;;;;;29.07;21.77;;;;;;;16.17;79.06;101532.38;5073147;28;20576;-66
2021/06/08 05:04:31;;;;;;;23.80;20.57;;;;;;;16.18;79.22;101531.41;5074504;28;20611;-66
2021/06/08 05:07:02;;;;;;;27.93;22.17;;;;;;;16.22;79.21;101527.53;5076936;28;20205;-66
2021/06/08 05:09:32;;;;;;;22.70;20.30;;;;;;;16.23;79.06;101529.25;5077538;28;20276;-66
2021/06/08 05:11:59;;;;;;;26.87;20.83;;;;;;;16.24;78.85;101529.13;5075029;28;20226;-66
2021/06/08 05:14:29;;;;;;;27.40;21.00;;;;;;;16.27;79.00;101520.00;5076380;28;20283;-66
2021/06/08 05:16:56;;;;;;;22.37;19.57;;;;;;;16.28;78.96;101527.94;5074252;28;20255;-66
2021/06/08 05:19:23;;;;;;;27.97;21.43;;;;;;;16.31;78.77;101526.84;5073441;28;20250;-66
2021/06/08 05:21:49;;;;;;;24.37;21.47;;;;;;;16.33;78.31;101530.28;5075984;28;20610;-66
2021/06/08 05:24:16;;;;;;;25.20;21.40;;;;;;;16.37;78.70;101526.41;5074021;28;20206;-65
2021/06/08 05:26:44;;;;;;;24.20;21.03;;;;;;;16.42;78.71;101540.38;5076415;28;20311;-66
2021/06/08 05:29:11;;;;;;;33.33;22.37;;;;;;;16.45;78.45;101534.75;5073934;28;20337;-67
2021/06/08 05:31:38;;;;;;;28.30;23.23;;;;;;;16.48;78.55;101536.38;5075619;28;20211;-63
2021/06/08 05:34:05;;;;;;;32.07;23.20;;;;;;;16.50;78.41;101534.41;5072538;28;20211;-66
2021/06/08 05:36:31;;;;;;;26.43;21.20;;;;;;;16.51;78.15;101542.34;5074427;28;20204;-65
2021/06/08 05:38:58;;;;;;;32.47;22.20;;;;;;;16.53;78.10;101543.09;5079351;28;20238;-66
2021/06/08 05:41:24;;;;;;;33.13;23.13;;;;;;;16.55;77.89;101537.63;5080397;28;20570;-65
2021/06/08 05:43:50;;;;;;;34.27;23.60;;;;;;;16.56;78.20;101542.03;5077646;28;20241;-66
2021/06/08 05:46:16;;;;;;;27.77;22.60;;;;;;;16.58;78.33;101540.09;5076346;28;20203;-66
2021/06/08 05:48:43;;;;;;;31.33;25.07;;;;;;;16.63;78.04;101537.94;5078221;28;20260;-66
2021/06/08 05:51:11;;;;;;;34.23;24.73;;;;;;;16.64;77.95;101542.38;5086856;28;20727;-66
2021/06/08 05:53:38;;;;;;;34.60;25.93;;;;;;;16.66;77.88;101543.06;5091891;28;20213;-65
2021/06/08 05:56:05;;;;;;;35.73;25.13;;;;;;;16.64;77.61;101548.59;5082798;28;20253;-65
2021/06/08 05:58:32;;;;;;;33.60;25.23;;;;;;;16.65;77.65;101547.63;5090105;28;20218;-66
2021/06/08 06:01:00;;;;;;;37.20;24.77;;;;;;;16.65;77.75;101546.78;5086417;28;20631;-65
2021/06/08 06:03:28;;;;;;;30.67;23.90;;;;;;;16.67;77.64;101556.41;5076011;28;20207;-66
2021/06/08 06:05:58;;;;;;;32.37;23.07;;;;;;;16.69;77.68;101550.91;5079454;28;20201;-66
2021/06/08 06:08:25;;;;;;;32.90;24.27;;;;;;;16.72;77.68;101558.78;5076874;28;20222;-64
2021/06/08 06:10:52;;;;;;;29.20;23.03;;;;;;;16.73;77.68;101556.94;5079087;28;20205;-66
2021/06/08 06:13:22;;;;;;;29.87;23.17;;;;;;;16.76;77.52;101554.03;5087062;28;20205;-65
2021/06/08 06:15:49;;;;;;;29.70;23.63;;;;;;;16.76;77.59;101554.03;5085401;28;20654;-66
2021/06/08 06:18:18;;;;;;;28.87;22.67;;;;;;;16.77;77.45;101550.38;5091907;28;20715;-66
2021/06/08 06:20:46;;;;;;;30.87;23.70;;;;;;;16.78;77.49;101555.63;5086753;28;20216;-65
2021/06/08 06:23:16;;;;;;;31.67;24.17;;;;;;;16.82;77.37;101567.03;5087169;28;20587;-64
2021/06/08 06:25:42;;;;;;;29.83;23.27;;;;;;;16.85;77.35;101558.69;5076883;28;20285;-66
2021/06/08 06:28:11;;;;;;;29.30;22.10;;;;;;;16.86;77.23;101555.91;5076726;28;20229;-66
2021/06/08 06:30:38;;;;;;;32.87;24.43;;;;;;;16.89;77.16;101555.66;5077665;28;20207;-66
2021/06/08 06:33:04;;;;;;;32.67;25.50;;;;;;;16.90;77.20;101556.53;5090775;28;20210;-65
2021/06/08 06:35:30;;;;;;;30.40;24.10;;;;;;;16.90;77.27;101562.78;5086207;28;20577;-66
2021/06/08 06:37:57;;;;;;;31.60;24.57;;;;;;;16.92;77.26;101562.66;5087945;28;20686;-66
2021/06/08 06:40:29;;;;;;;30.23;23.83;;;;;;;16.95;77.15;101565.97;5075863;28;20202;-64
2021/06/08 06:43:01;;;;;;;30.40;23.77;;;;;;;16.97;77.19;101571.25;5089463;28;20668;-66
2021/06/08 06:45:28;;;;;;;33.70;23.87;;;;;;;16.96;77.05;101562.31;5088907;28;20198;-66
2021/06/08 06:48:01;;;;;;;32.27;23.17;;;;;;;16.98;77.11;101556.81;5091438;28;20231;-67
2021/06/08 06:50:27;;;;;;;31.20;23.83;;;;;;;17.00;77.06;101565.63;5077638;22;20321;-67
2021/06/08 06:52:56;;;;;;;33.70;24.47;;;;;;;17.00;77.06;101568.34;5049874;28;20209;-67
2021/06/08 06:55:24;;;;;;;32.77;23.97;;;;;;;17.03;77.06;101562.69;5050331;28;20212;-66
2021/06/08 06:57:52;;;;;;;28.17;23.43;;;;;;;17.05;77.07;101563.44;5047051;28;20598;-67
2021/06/08 07:00:19;;;;;;;30.40;24.10;;;;;;;17.07;76.92;101563.31;5045662;28;20234;-67
2021/06/08 07:02:46;;;;;;;30.50;24.00;;;;;;;17.06;76.81;101572.38;5047973;28;20714;-67
2021/06/08 07:05:15;;;;;;;29.13;23.77;;;;;;;17.07;76.88;101574.94;5046526;28;20204;-67
2021/06/08 07:07:43;;;;;;;29.63;23.23;;;;;;;17.08;76.71;101575.81;5048621;28;20234;-67
2021/06/08 07:10:10;;;;;;;28.13;22.50;;;;;;;17.08;76.79;101565.91;5049636;28;20222;-67
2021/06/08 07:12:39;;;;;;;30.00;23.37;;;;;;;17.11;76.72;101572.88;5049265;28;20211;-67
2021/06/08 07:15:09;;;;;;;25.93;21.77;;;;;;;17.11;76.58;101575.56;5045656;28;20219;-67
2021/06/08 07:17:37;;;;;;;30.90;24.97;;;;;;;17.11;76.61;101572.88;5045397;28;20212;-66
2021/06/08 07:20:04;;;;;;;29.93;23.93;;;;;;;17.13;76.83;101574.50;5050340;28;20228;-67
2021/06/08 07:22:30;;;;;;;30.10;23.60;;;;;;;17.16;76.82;101579.66;5049722;28;20281;-67
2021/06/08 07:24:57;;;;;;;29.60;23.43;;;;;;;17.19;76.80;101578.56;5048584;28;20211;-66
2021/06/08 07:27:23;;;;;;;29.83;23.00;;;;;;;17.22;76.72;101579.16;5050583;28;20638;-67
2021/06/08 07:29:51;;;;;;;30.27;23.60;;;;;;;17.24;76.57;101587.97;5049639;28;20713;-67
2021/06/08 07:32:22;;;;;;;26.63;22.53;;;;;;;17.29;76.50;101591.19;5050305;28;20300;-68
2021/06/08 07:34:51;;;;;;;28.53;23.37;;;;;;;17.36;76.69;101586.19;5049987;28;20203;-67
2021/06/08 07:37:22;;;;;;;28.03;23.57;;;;;;;17.41;76.42;101578.59;5050289;28;20207;-66
2021/06/08 07:39:51;;;;;;;32.23;25.03;;;;;;;17.47;76.41;101577.28;5048225;28;20733;-66
2021/06/08 07:42:24;;;;;;;26.20;22.13;;;;;;;17.54;76.15;101571.31;5049096;28;20207;-67
2021/06/08 07:44:52;;;;;;;27.53;21.80;;;;;;;17.65;75.98;101581.25;5049607;28;20226;-67
2021/06/08 07:47:23;;;;;;;22.13;19.83;;;;;;;17.74;75.24;101583.22;5049395;28;20700;-67
2021/06/08 07:49:51;;;;;;;25.03;21.40;;;;;;;17.82;74.81;101579.94;5049560;28;20254;-67
2021/06/08 07:52:18;;;;;;;24.13;19.93;;;;;;;17.92;74.58;101580.91;5048984;28;20258;-66
2021/06/08 07:54:45;;;;;;;22.30;19.90;;;;;;;18.03;73.98;101578.25;5049497;28;20201;-67
2021/06/08 07:57:12;;;;;;;22.77;20.43;;;;;;;18.14;73.42;101574.66;5043475;28;20204;-67
2021/06/08 07:59:40;;;;;;;26.47;20.93;;;;;;;18.22;73.09;101572.22;5049015;28;20229;-67
2021/06/08 08:02:06;;;;;;;26.93;20.03;;;;;;;18.32;72.84;101576.75;5044206;28;20305;-67
2021/06/08 08:04:38;;;;;;;24.80;20.40;;;;;;;18.44;72.48;101577.59;5047173;28;20290;-67
2021/06/08 08:07:04;;;;;;;25.83;20.63;;;;;;;18.58;72.25;101580.03;5049654;28;20248;-67
2021/06/08 08:09:31;;;;;;;24.13;19.47;;;;;;;18.68;71.65;101575.59;5042430;28;20285;-68
2021/06/08 08:11:58;;;;;;;20.63;18.53;;;;;;;18.75;71.02;101583.19;5048814;28;20738;-67
2021/06/08 08:14:25;;;;;;;25.60;19.57;;;;;;;18.80;70.54;101579.13;5043566;28;20207;-67
2021/06/08 08:16:54;;;;;;;22.33;19.17;;;;;;;18.98;70.73;101592.94;5049483;28;20720;-67
2021/06/08 08:19:21;;;;;;;20.70;18.57;;;;;;;19.16;70.00;101588.69;5049319;28;20218;-67
2021/06/08 08:21:49;;;;;;;20.60;18.40;;;;;;;19.30;69.07;101584.81;5049032;28;20622;-67
2021/06/08 08:24:15;;;;;;;20.73;18.53;;;;;;;19.43;68.48;101580.94;5048230;28;20219;-67
2021/06/08 08:26:41;;;;;;;21.00;17.63;;;;;;;19.59;68.34;101582.34;5049672;28;20214;-67
2021/06/08 08:29:07;;;;;;;20.27;18.13;;;;;;;19.77;67.83;101580.72;5049024;28;20696;-67
2021/06/08 08:31:34;;;;;;;20.73;18.53;;;;;;;19.92;67.22;101589.34;5048663;28;20557;-66
2021/06/08 08:34:00;;;;;;;21.80;19.37;;;;;;;20.06;66.46;101579.00;5049635;28;20208;-67
2021/06/08 08:36:29;;;;;;;19.77;17.57;;;;;;;20.17;65.90;101575.38;5046464;28;20201;-67
2021/06/08 08:38:58;;;;;;;19.87;17.77;;;;;;;20.31;65.44;101583.09;5048720;28;20322;-68
2021/06/08 08:41:41;;;;;;;20.10;17.17;;;;;;;20.48;65.11;101572.66;5025194;28;20218;-67
2021/06/08 08:44:08;;;;;;;20.20;18.10;;;;;;;20.70;65.01;101575.97;5048846;28;20212;-67
2021/06/08 08:46:34;;;;;;;19.07;17.20;;;;;;;20.86;64.03;101577.28;5049312;28;20199;-67
2021/06/08 08:49:01;;;;;;;21.63;19.37;;;;;;;20.97;63.36;101569.00;5049025;28;20236;-67
2021/06/08 08:51:29;;;;;;;20.07;17.97;;;;;;;21.07;63.19;101578.88;5048375;28;20203;-66
2021/06/08 08:53:58;;;;;;;24.67;19.50;;;;;;;21.09;62.94;101576.88;5048481;28;20688;-67
2021/06/08 08:56:28;;;;;;;21.27;18.60;;;;;;;21.18;62.87;101572.44;5042948;28;20227;-66
2021/06/08 08:58:55;;;;;;;23.53;18.67;;;;;;;21.34;62.95;101572.72;5049114;28;20604;-67
2021/06/08 09:01:21;;;;;;;21.33;19.23;;;;;;;21.45;62.28;101569.03;5048649;28;20295;-67
2021/06/08 09:03:48;;;;;;;20.57;18.47;;;;;;;21.50;62.04;101572.13;5049185;28;20199;-69
2021/06/08 09:06:16;;;;;;;21.90;19.60;;;;;;;21.53;61.55;101574.56;5049174;28;20204;-68
2021/06/08 09:08:42;;;;;;;20.50;18.30;;;;;;;21.51;61.52;101570.28;5053281;28;20270;-68
2021/06/08 09:11:10;;;;;;;20.75;18.55;;;;;;;21.50;61.60;101577.56;5052319;28;20218;-67
2021/06/08 09:13:36;;;;;;;22.53;19.00;;;;;;;21.51;61.63;101578.41;5052137;28;20597;-68
2021/06/08 09:16:02;;;;;;;25.40;20.00;;;;;;;21.55;61.64;101574.41;5050860;28;20256;-67
2021/06/08 09:18:29;;;;;;;23.17;19.27;;;;;;;21.65;62.16;101578.84;5052311;28;20212;-67
2021/06/08 09:21:11;;;;;;;24.80;19.85;;;;;;;21.73;61.54;101573.50;5052302;28;20740;-68
2021/06/08 09:23:37;;;;;;;22.10;18.10;;;;;;;21.79;61.43;101572.09;5051024;28;20223;-68
2021/06/08 09:26:03;;;;;;;22.35;19.90;;;;;;;21.87;61.24;101579.47;5052351;28;20204;-68
2021/06/08 09:28:31;;;;;;;22.33;18.45;;;;;;;21.90;60.39;101577.31;5052515;28;20225;-68
2021/06/08 09:31:04;;;;;;;21.52;19.23;;;;;;;21.89;59.49;101577.47;5052375;28;20647;-68
2021/06/08 09:33:32;;;;;;;25.50;20.73;;;;;;;21.91;60.08;101570.88;5052396;28;20201;-67
2021/06/08 09:36:00;;;;;;;26.35;20.45;;;;;;;21.97;60.03;101570.31;5052242;28;20506;-67
2021/06/08 09:38:44;;;;;;;23.70;20.52;;;;;;;22.04;60.00;101565.16;5051790;28;20204;-68
2021/06/08 09:41:19;;;;;;;26.65;20.27;;;;;;;22.06;59.78;101569.44;5052470;28;20201;-68
2021/06/08 09:44:00;;;;;;;20.30;18.27;;;;;;;22.09;59.30;101563.72;5049343;28;20205;-66
2021/06/08 09:46:42;;;;;;;24.05;20.50;;;;;;;22.10;59.49;101564.56;5048808;28;20205;-67
2021/06/08 09:49:09;;;;;;;21.45;19.17;;;;;;;22.20;59.54;101562.69;5046403;28;20229;-68
2021/06/08 09:51:50;;;;;;;21.27;19.17;;;;;;;22.30;58.85;101563.47;5051189;28;20213;-67
2021/06/08 09:54:33;;;;;;;22.27;19.27;;;;;;;22.40;58.75;101555.25;5048351;28;20259;-68
2021/06/08 09:57:16;;;;;;;22.83;19.83;;;;;;;22.47;58.92;101557.22;5045631;28;20272;-68
2021/06/08 09:59:47;;;;;;;21.42;19.13;;;;;;;22.57;58.18;101551.75;5048425;28;20251;-67
2021/06/08 10:02:35;;;;;;;23.23;19.95;;;;;;;22.63;57.61;101545.69;5051190;28;20580;-68
2021/06/08 10:05:21;;;;;;;20.20;18.00;;;;;;;22.69;57.70;101549.66;5045603;28;20581;-68
2021/06/08 10:07:48;;;;;;;19.45;17.55;;;;;;;22.72;57.04;101552.94;5048896;28;20255;-68
2021/06/08 10:10:16;;;;;;;20.10;18.23;;;;;;;22.79;56.98;101551.31;5047007;28;20240;-69
2021/06/08 10:12:58;;;;;;;21.45;18.42;;;;;;;22.88;57.24;101552.25;5049707;28;20667;-67
2021/06/08 10:15:27;;;;;;;20.40;17.58;;;;;;;23.03;57.58;101542.56;5049388;28;20197;-67
2021/06/08 10:17:58;;;;;;;22.25;19.85;;;;;;;23.18;56.22;101535.53;5047485;28;20205;-68
2021/06/08 10:20:26;;;;;;;19.10;17.05;;;;;;;23.35;56.96;101536.53;5047783;28;20236;-67
2021/06/08 10:22:53;;;;;;;21.98;19.35;;;;;;;23.48;55.54;101542.38;5045649;28;20201;-68
2021/06/08 10:25:19;;;;;;;20.75;18.73;;;;;;;23.59;55.61;101537.75;5049546;28;20199;-68
2021/06/08 10:27:45;;;;;;;21.98;17.50;;;;;;;23.66;55.44;101536.06;5051146;28;20235;-67
2021/06/08 10:30:12;;;;;;;19.65;16.90;;;;;;;23.70;54.58;101541.03;5051840;28;20280;-67
2021/06/08 10:32:40;;;;;;;18.98;16.52;;;;;;;23.70;54.45;101542.91;5050566;28;20211;-68
2021/06/08 10:35:07;;;;;;;19.27;17.27;;;;;;;23.68;53.15;101531.34;5051033;28;20232;-67
2021/06/08 10:37:34;;;;;;;17.80;15.93;;;;;;;23.71;53.83;101531.88;5051630;28;20211;-68
2021/06/08 10:40:01;;;;;;;19.15;17.13;;;;;;;23.83;53.71;101521.56;5050078;28;20221;-67
2021/06/08 10:42:27;;;;;;;19.38;16.15;;;;;;;23.96;53.68;101521.97;5050735;28;20681;-68
2021/06/08 10:45:01;;;;;;;18.65;16.75;;;;;;;24.08;53.11;101522.53;5051087;28;20239;-68
2021/06/08 10:47:35;;;;;;;17.23;15.40;;;;;;;24.15;52.27;101524.44;5051409;28;20265;-67
2021/06/08 10:50:04;;;;;;;17.48;15.77;;;;;;;24.20;52.01;101522.06;5050043;28;20613;-68
2021/06/08 10:52:45;;;;;;;15.93;14.35;;;;;;;24.25;51.47;101518.88;5050413;28;20202;-68
2021/06/08 10:55:12;;;;;;;18.15;16.40;;;;;;;24.32;51.76;101519.09;5050928;28;20287;-68
2021/06/08 10:57:45;;;;;;;20.20;18.02;;;;;;;24.42;51.98;101515.19;5050704;28;20209;-67
2021/06/08 11:00:38;;;;;;;22.88;18.60;;;;;;;24.47;52.21;101515.56;5049817;28;20222;-68
2021/06/08 11:03:06;;;;;;;20.42;18.27;;;;;;;24.43;51.20;101522.34;5041922;28;20210;-67
2021/06/08 11:05:56;;;;;;;20.60;17.70;;;;;;;24.34;51.37;101519.78;5050675;28;20296;-67
2021/06/08 11:08:55;;;;;;;19.85;17.00;;;;;;;24.29;51.40;101519.41;5047458;28;20217;-68
2021/06/08 11:11:47;;;;;;;16.27;14.35;;;;;;;24.20;50.99;101527.50;5047775;28;20678;-67
2021/06/08 11:14:54;;;;;;;18.83;16.00;;;;;;;24.18;51.36;101524.09;5049858;28;20193;-67
2021/06/08 11:17:35;;;;;;;16.05;14.40;;;;;;;24.20;51.12;101526.66;5050563;28;20205;-68